sensor_id;sensor_type;location;lat;lon;timestamp;P1;durP1;ratioP1;P2;durP2;ratioP2
72586;SDS011;60621;49.576;11.024;2022-10-04T00:00:39;5.72;;;2.47;;
72586;SDS011;60621;49.576;11.024;2022-10-04T00:03:40;7.90;;;2.60;;
72586;SDS011;60621;49.576;11.024;2022-10-04T00:04:39;9.82;;;2.40;;
72586;SDS011;60621;49.576;11.024;2022-10-04T00:05:47;6.03;;;2.30;;
72586;SDS011;60621;49.576;11.024;2022-10-04T00:06:58;5.38;;;2.47;;
72586;SDS011;60621;49.576;11.024;2022-10-04T00:08:07;5.22;;;2.53;;
72586;SDS011;60621;49.576;11.024;2022-10-04T00:10:34;7.22;;;2.80;;
72586;SDS011;60621;49.576;11.024;2022-10-04T00:11:37;5.32;;;2.33;;
72586;SDS011;60621;49.576;11.024;2022-10-04T00:12:48;8.18;;;2.50;;
72586;SDS011;60621;49.576;11.024;2022-10-04T00:13:54;6.70;;;2.45;;
72586;SDS011;60621;49.576;11.024;2022-10-04T00:14:59;6.07;;;2.40;;
72586;SDS011;60621;49.576;11.024;2022-10-04T00:16:04;6.20;;;2.35;;
72586;SDS011;60621;49.576;11.024;2022-10-04T00:17:08;8.02;;;2.63;;
72586;SDS011;60621;49.576;11.024;2022-10-04T00:22:08;5.82;;;2.40;;
72586;SDS011;60621;49.576;11.024;2022-10-04T00:24:28;7.03;;;2.50;;
72586;SDS011;60621;49.576;11.024;2022-10-04T00:25:33;8.00;;;2.20;;
72586;SDS011;60621;49.576;11.024;2022-10-04T00:27:39;7.20;;;2.70;;
72586;SDS011;60621;49.576;11.024;2022-10-04T00:29:22;6.63;;;2.60;;
72586;SDS011;60621;49.576;11.024;2022-10-04T00:30:37;8.73;;;2.30;;
72586;SDS011;60621;49.576;11.024;2022-10-04T00:33:32;5.38;;;2.30;;
72586;SDS011;60621;49.576;11.024;2022-10-04T00:34:48;7.72;;;2.30;;
72586;SDS011;60621;49.576;11.024;2022-10-04T00:35:53;6.38;;;2.30;;
72586;SDS011;60621;49.576;11.024;2022-10-04T00:36:55;7.18;;;2.13;;
72586;SDS011;60621;49.576;11.024;2022-10-04T00:40:14;6.55;;;2.20;;
72586;SDS011;60621;49.576;11.024;2022-10-04T00:41:20;5.70;;;2.15;;
72586;SDS011;60621;49.576;11.024;2022-10-04T00:44:44;5.10;;;2.30;;
72586;SDS011;60621;49.576;11.024;2022-10-04T00:45:51;6.30;;;2.50;;
72586;SDS011;60621;49.576;11.024;2022-10-04T00:46:57;6.97;;;2.50;;
72586;SDS011;60621;49.576;11.024;2022-10-04T00:49:08;8.10;;;2.40;;
72586;SDS011;60621;49.576;11.024;2022-10-04T00:50:31;5.80;;;2.40;;
72586;SDS011;60621;49.576;11.024;2022-10-04T00:51:45;6.20;;;2.47;;
72586;SDS011;60621;49.576;11.024;2022-10-04T00:55:05;5.53;;;2.25;;
72586;SDS011;60621;49.576;11.024;2022-10-04T00:56:21;5.90;;;2.33;;
72586;SDS011;60621;49.576;11.024;2022-10-04T00:57:41;5.63;;;2.70;;
72586;SDS011;60621;49.576;11.024;2022-10-04T00:59:11;5.80;;;2.63;;
72586;SDS011;60621;49.576;11.024;2022-10-04T01:00:30;5.75;;;2.30;;
72586;SDS011;60621;49.576;11.024;2022-10-04T01:01:33;5.60;;;2.70;;
72586;SDS011;60621;49.576;11.024;2022-10-04T01:03:44;5.47;;;2.60;;
72586;SDS011;60621;49.576;11.024;2022-10-04T01:06:07;5.22;;;2.63;;
72586;SDS011;60621;49.576;11.024;2022-10-04T01:07:12;6.75;;;2.65;;
72586;SDS011;60621;49.576;11.024;2022-10-04T01:08:21;5.85;;;2.58;;
72586;SDS011;60621;49.576;11.024;2022-10-04T01:09:28;6.75;;;2.72;;
72586;SDS011;60621;49.576;11.024;2022-10-04T01:10:39;5.50;;;2.70;;
72586;SDS011;60621;49.576;11.024;2022-10-04T01:11:49;6.57;;;2.70;;
72586;SDS011;60621;49.576;11.024;2022-10-04T01:13:04;4.97;;;2.40;;
72586;SDS011;60621;49.576;11.024;2022-10-04T01:14:17;7.25;;;2.60;;
72586;SDS011;60621;49.576;11.024;2022-10-04T01:16:26;5.05;;;2.30;;
72586;SDS011;60621;49.576;11.024;2022-10-04T01:17:30;5.55;;;2.72;;
72586;SDS011;60621;49.576;11.024;2022-10-04T01:18:33;6.68;;;2.50;;
72586;SDS011;60621;49.576;11.024;2022-10-04T01:19:35;6.57;;;2.20;;
72586;SDS011;60621;49.576;11.024;2022-10-04T01:20:39;5.35;;;2.40;;
72586;SDS011;60621;49.576;11.024;2022-10-04T01:23:11;5.15;;;2.58;;
72586;SDS011;60621;49.576;11.024;2022-10-04T01:24:41;6.10;;;2.58;;
72586;SDS011;60621;49.576;11.024;2022-10-04T01:25:45;6.32;;;2.45;;
72586;SDS011;60621;49.576;11.024;2022-10-04T01:26:51;4.90;;;2.50;;
72586;SDS011;60621;49.576;11.024;2022-10-04T01:27:53;6.30;;;2.53;;
72586;SDS011;60621;49.576;11.024;2022-10-04T01:28:55;5.65;;;2.60;;
72586;SDS011;60621;49.576;11.024;2022-10-04T01:30:03;6.70;;;2.58;;
72586;SDS011;60621;49.576;11.024;2022-10-04T01:31:09;8.85;;;2.50;;
72586;SDS011;60621;49.576;11.024;2022-10-04T01:32:11;5.78;;;2.40;;
72586;SDS011;60621;49.576;11.024;2022-10-04T01:33:12;7.40;;;2.33;;
72586;SDS011;60621;49.576;11.024;2022-10-04T01:34:18;6.38;;;2.55;;
72586;SDS011;60621;49.576;11.024;2022-10-04T01:35:21;6.32;;;2.55;;
72586;SDS011;60621;49.576;11.024;2022-10-04T01:36:23;5.45;;;2.42;;
72586;SDS011;60621;49.576;11.024;2022-10-04T01:37:25;6.63;;;2.45;;
72586;SDS011;60621;49.576;11.024;2022-10-04T01:38:27;6.22;;;2.40;;
72586;SDS011;60621;49.576;11.024;2022-10-04T01:39:28;4.85;;;2.20;;
72586;SDS011;60621;49.576;11.024;2022-10-04T01:40:30;5.32;;;2.50;;
72586;SDS011;60621;49.576;11.024;2022-10-04T01:42:55;5.63;;;2.25;;
72586;SDS011;60621;49.576;11.024;2022-10-04T01:44:02;6.43;;;2.50;;
72586;SDS011;60621;49.576;11.024;2022-10-04T01:46:22;5.63;;;2.40;;
72586;SDS011;60621;49.576;11.024;2022-10-04T01:47:40;7.57;;;2.22;;
72586;SDS011;60621;49.576;11.024;2022-10-04T01:48:45;6.40;;;2.70;;
72586;SDS011;60621;49.576;11.024;2022-10-04T01:49:47;7.10;;;2.55;;
72586;SDS011;60621;49.576;11.024;2022-10-04T01:52:14;6.57;;;2.35;;
72586;SDS011;60621;49.576;11.024;2022-10-04T01:53:26;5.97;;;2.95;;
72586;SDS011;60621;49.576;11.024;2022-10-04T01:54:37;6.07;;;2.40;;
72586;SDS011;60621;49.576;11.024;2022-10-04T01:55:43;5.15;;;2.47;;
72586;SDS011;60621;49.576;11.024;2022-10-04T01:56:54;5.70;;;2.30;;
72586;SDS011;60621;49.576;11.024;2022-10-04T01:58:22;10.63;;;2.80;;
72586;SDS011;60621;49.576;11.024;2022-10-04T01:59:27;7.78;;;2.75;;
72586;SDS011;60621;49.576;11.024;2022-10-04T02:00:36;5.90;;;2.50;;
72586;SDS011;60621;49.576;11.024;2022-10-04T02:01:44;6.90;;;2.75;;
72586;SDS011;60621;49.576;11.024;2022-10-04T02:02:51;5.65;;;2.65;;
72586;SDS011;60621;49.576;11.024;2022-10-04T02:04:00;6.22;;;2.67;;
72586;SDS011;60621;49.576;11.024;2022-10-04T02:05:10;7.57;;;2.35;;
72586;SDS011;60621;49.576;11.024;2022-10-04T02:06:17;5.78;;;2.33;;
72586;SDS011;60621;49.576;11.024;2022-10-04T02:07:20;7.05;;;2.55;;
72586;SDS011;60621;49.576;11.024;2022-10-04T02:08:24;6.50;;;2.65;;
72586;SDS011;60621;49.576;11.024;2022-10-04T02:09:31;7.22;;;2.67;;
72586;SDS011;60621;49.576;11.024;2022-10-04T02:10:35;5.25;;;2.30;;
72586;SDS011;60621;49.576;11.024;2022-10-04T02:11:44;8.35;;;2.40;;
72586;SDS011;60621;49.576;11.024;2022-10-04T02:12:53;5.15;;;2.50;;
72586;SDS011;60621;49.576;11.024;2022-10-04T02:13:57;5.72;;;2.65;;
72586;SDS011;60621;49.576;11.024;2022-10-04T02:15:01;5.88;;;2.40;;
72586;SDS011;60621;49.576;11.024;2022-10-04T02:16:07;7.65;;;2.78;;
72586;SDS011;60621;49.576;11.024;2022-10-04T02:17:11;7.22;;;2.40;;
72586;SDS011;60621;49.576;11.024;2022-10-04T02:18:14;5.80;;;2.60;;
72586;SDS011;60621;49.576;11.024;2022-10-04T02:19:21;6.07;;;2.75;;
72586;SDS011;60621;49.576;11.024;2022-10-04T02:20:27;6.20;;;2.83;;
72586;SDS011;60621;49.576;11.024;2022-10-04T02:21:29;6.15;;;2.45;;
72586;SDS011;60621;49.576;11.024;2022-10-04T02:22:31;6.75;;;2.47;;
72586;SDS011;60621;49.576;11.024;2022-10-04T02:23:33;5.90;;;2.40;;
72586;SDS011;60621;49.576;11.024;2022-10-04T02:24:41;5.60;;;2.45;;
72586;SDS011;60621;49.576;11.024;2022-10-04T02:25:45;6.07;;;2.58;;
72586;SDS011;60621;49.576;11.024;2022-10-04T02:26:53;6.53;;;2.63;;
72586;SDS011;60621;49.576;11.024;2022-10-04T02:27:54;6.88;;;2.60;;
72586;SDS011;60621;49.576;11.024;2022-10-04T02:28:56;5.65;;;2.50;;
72586;SDS011;60621;49.576;11.024;2022-10-04T02:30:02;6.60;;;2.53;;
72586;SDS011;60621;49.576;11.024;2022-10-04T02:31:07;6.47;;;2.75;;
72586;SDS011;60621;49.576;11.024;2022-10-04T02:32:29;8.27;;;3.30;;
72586;SDS011;60621;49.576;11.024;2022-10-04T02:33:51;6.00;;;2.60;;
72586;SDS011;60621;49.576;11.024;2022-10-04T02:34:56;6.78;;;2.97;;
72586;SDS011;60621;49.576;11.024;2022-10-04T02:35:58;6.45;;;2.90;;
72586;SDS011;60621;49.576;11.024;2022-10-04T02:37:01;7.05;;;2.90;;
72586;SDS011;60621;49.576;11.024;2022-10-04T02:38:21;7.15;;;2.80;;
72586;SDS011;60621;49.576;11.024;2022-10-04T02:39:26;7.82;;;2.80;;
72586;SDS011;60621;49.576;11.024;2022-10-04T02:40:49;7.35;;;2.38;;
72586;SDS011;60621;49.576;11.024;2022-10-04T02:42:02;7.80;;;3.00;;
72586;SDS011;60621;49.576;11.024;2022-10-04T02:43:30;6.60;;;2.58;;
72586;SDS011;60621;49.576;11.024;2022-10-04T02:44:41;7.32;;;2.40;;
72586;SDS011;60621;49.576;11.024;2022-10-04T02:45:49;8.02;;;3.00;;
72586;SDS011;60621;49.576;11.024;2022-10-04T02:47:29;6.88;;;3.10;;
72586;SDS011;60621;49.576;11.024;2022-10-04T02:48:59;6.38;;;2.70;;
72586;SDS011;60621;49.576;11.024;2022-10-04T02:49:57;5.80;;;2.60;;
72586;SDS011;60621;49.576;11.024;2022-10-04T02:51:11;6.22;;;2.80;;
72586;SDS011;60621;49.576;11.024;2022-10-04T02:52:22;6.82;;;2.90;;
72586;SDS011;60621;49.576;11.024;2022-10-04T02:53:28;8.82;;;2.97;;
72586;SDS011;60621;49.576;11.024;2022-10-04T02:54:39;7.30;;;2.72;;
72586;SDS011;60621;49.576;11.024;2022-10-04T02:55:47;7.15;;;2.60;;
72586;SDS011;60621;49.576;11.024;2022-10-04T02:56:50;8.60;;;2.72;;
72586;SDS011;60621;49.576;11.024;2022-10-04T02:57:53;6.28;;;2.58;;
72586;SDS011;60621;49.576;11.024;2022-10-04T02:58:59;6.45;;;2.50;;
72586;SDS011;60621;49.576;11.024;2022-10-04T03:00:12;5.30;;;2.80;;
72586;SDS011;60621;49.576;11.024;2022-10-04T03:01:23;6.00;;;2.72;;
72586;SDS011;60621;49.576;11.024;2022-10-04T03:02:36;6.10;;;2.45;;
72586;SDS011;60621;49.576;11.024;2022-10-04T03:03:40;7.38;;;3.15;;
72586;SDS011;60621;49.576;11.024;2022-10-04T03:04:46;7.35;;;2.85;;
72586;SDS011;60621;49.576;11.024;2022-10-04T03:07:12;6.03;;;2.63;;
72586;SDS011;60621;49.576;11.024;2022-10-04T03:08:14;5.45;;;2.40;;
72586;SDS011;60621;49.576;11.024;2022-10-04T03:09:15;6.78;;;3.17;;
72586;SDS011;60621;49.576;11.024;2022-10-04T03:10:20;6.85;;;3.20;;
72586;SDS011;60621;49.576;11.024;2022-10-04T03:11:23;8.00;;;3.20;;
72586;SDS011;60621;49.576;11.024;2022-10-04T03:12:28;7.15;;;3.30;;
72586;SDS011;60621;49.576;11.024;2022-10-04T03:13:32;7.03;;;3.22;;
72586;SDS011;60621;49.576;11.024;2022-10-04T03:14:36;6.22;;;3.00;;
72586;SDS011;60621;49.576;11.024;2022-10-04T03:15:39;6.13;;;3.10;;
72586;SDS011;60621;49.576;11.024;2022-10-04T03:16:41;6.75;;;3.15;;
72586;SDS011;60621;49.576;11.024;2022-10-04T03:17:44;7.05;;;3.28;;
72586;SDS011;60621;49.576;11.024;2022-10-04T03:18:47;6.07;;;2.97;;
72586;SDS011;60621;49.576;11.024;2022-10-04T03:19:51;10.80;;;3.40;;
72586;SDS011;60621;49.576;11.024;2022-10-04T03:20:53;7.00;;;3.22;;
72586;SDS011;60621;49.576;11.024;2022-10-04T03:21:56;6.50;;;3.45;;
72586;SDS011;60621;49.576;11.024;2022-10-04T03:23:09;6.63;;;3.30;;
72586;SDS011;60621;49.576;11.024;2022-10-04T03:24:23;7.28;;;3.30;;
72586;SDS011;60621;49.576;11.024;2022-10-04T03:25:34;6.80;;;2.97;;
72586;SDS011;60621;49.576;11.024;2022-10-04T03:27:01;6.47;;;3.28;;
72586;SDS011;60621;49.576;11.024;2022-10-04T03:28:06;8.80;;;3.60;;
72586;SDS011;60621;49.576;11.024;2022-10-04T03:29:09;11.88;;;4.15;;
72586;SDS011;60621;49.576;11.024;2022-10-04T03:30:13;13.10;;;4.20;;
72586;SDS011;60621;49.576;11.024;2022-10-04T03:31:16;10.35;;;3.65;;
72586;SDS011;60621;49.576;11.024;2022-10-04T03:32:20;8.90;;;3.60;;
72586;SDS011;60621;49.576;11.024;2022-10-04T03:33:23;10.02;;;4.13;;
72586;SDS011;60621;49.576;11.024;2022-10-04T03:34:27;8.65;;;3.72;;
72586;SDS011;60621;49.576;11.024;2022-10-04T03:35:35;8.73;;;3.70;;
72586;SDS011;60621;49.576;11.024;2022-10-04T03:36:40;9.15;;;3.92;;
72586;SDS011;60621;49.576;11.024;2022-10-04T03:37:42;9.82;;;3.67;;
72586;SDS011;60621;49.576;11.024;2022-10-04T03:38:44;7.93;;;3.63;;
72586;SDS011;60621;49.576;11.024;2022-10-04T03:39:49;10.05;;;3.20;;
72586;SDS011;60621;49.576;11.024;2022-10-04T03:40:54;7.95;;;3.30;;
72586;SDS011;60621;49.576;11.024;2022-10-04T03:42:03;7.35;;;3.22;;
72586;SDS011;60621;49.576;11.024;2022-10-04T03:43:08;8.85;;;3.50;;
72586;SDS011;60621;49.576;11.024;2022-10-04T03:44:14;6.30;;;2.97;;
72586;SDS011;60621;49.576;11.024;2022-10-04T03:45:18;7.05;;;3.10;;
72586;SDS011;60621;49.576;11.024;2022-10-04T03:46:21;6.07;;;2.75;;
72586;SDS011;60621;49.576;11.024;2022-10-04T03:47:26;5.65;;;2.83;;
72586;SDS011;60621;49.576;11.024;2022-10-04T03:48:33;8.00;;;3.13;;
72586;SDS011;60621;49.576;11.024;2022-10-04T03:49:37;7.38;;;2.97;;
72586;SDS011;60621;49.576;11.024;2022-10-04T03:50:44;7.40;;;3.10;;
72586;SDS011;60621;49.576;11.024;2022-10-04T03:51:48;6.82;;;2.85;;
72586;SDS011;60621;49.576;11.024;2022-10-04T03:52:52;6.43;;;3.10;;
72586;SDS011;60621;49.576;11.024;2022-10-04T03:53:56;7.10;;;3.05;;
72586;SDS011;60621;49.576;11.024;2022-10-04T03:55:02;11.98;;;3.65;;
72586;SDS011;60621;49.576;11.024;2022-10-04T03:56:08;7.20;;;2.78;;
72586;SDS011;60621;49.576;11.024;2022-10-04T03:57:14;6.10;;;3.00;;
72586;SDS011;60621;49.576;11.024;2022-10-04T03:58:16;6.15;;;3.10;;
72586;SDS011;60621;49.576;11.024;2022-10-04T03:59:19;5.75;;;2.78;;
72586;SDS011;60621;49.576;11.024;2022-10-04T04:00:25;6.47;;;2.97;;
72586;SDS011;60621;49.576;11.024;2022-10-04T04:02:57;6.32;;;3.10;;
72586;SDS011;60621;49.576;11.024;2022-10-04T04:05:24;6.70;;;2.97;;
72586;SDS011;60621;49.576;11.024;2022-10-04T04:06:36;7.28;;;2.90;;
72586;SDS011;60621;49.576;11.024;2022-10-04T04:10:46;9.38;;;3.28;;
72586;SDS011;60621;49.576;11.024;2022-10-04T04:11:51;6.72;;;3.00;;
72586;SDS011;60621;49.576;11.024;2022-10-04T04:14:11;6.65;;;2.90;;
72586;SDS011;60621;49.576;11.024;2022-10-04T04:15:19;6.57;;;2.92;;
72586;SDS011;60621;49.576;11.024;2022-10-04T04:16:21;8.30;;;3.13;;
72586;SDS011;60621;49.576;11.024;2022-10-04T04:18:35;6.18;;;3.00;;
72586;SDS011;60621;49.576;11.024;2022-10-04T04:19:38;6.88;;;3.10;;
72586;SDS011;60621;49.576;11.024;2022-10-04T04:20:40;6.70;;;3.00;;
72586;SDS011;60621;49.576;11.024;2022-10-04T04:21:43;6.15;;;3.28;;
72586;SDS011;60621;49.576;11.024;2022-10-04T04:24:23;5.70;;;2.78;;
72586;SDS011;60621;49.576;11.024;2022-10-04T04:25:30;8.02;;;3.30;;
72586;SDS011;60621;49.576;11.024;2022-10-04T04:26:35;9.20;;;3.47;;
72586;SDS011;60621;49.576;11.024;2022-10-04T04:27:44;6.97;;;3.17;;
72586;SDS011;60621;49.576;11.024;2022-10-04T04:28:51;8.10;;;3.25;;
72586;SDS011;60621;49.576;11.024;2022-10-04T04:29:56;9.43;;;3.58;;
72586;SDS011;60621;49.576;11.024;2022-10-04T04:31:03;7.88;;;3.30;;
72586;SDS011;60621;49.576;11.024;2022-10-04T04:32:20;9.32;;;3.72;;
72586;SDS011;60621;49.576;11.024;2022-10-04T04:33:29;8.63;;;3.50;;
72586;SDS011;60621;49.576;11.024;2022-10-04T04:34:50;10.55;;;3.22;;
72586;SDS011;60621;49.576;11.024;2022-10-04T04:36:09;9.68;;;3.40;;
72586;SDS011;60621;49.576;11.024;2022-10-04T04:37:12;8.25;;;3.25;;
72586;SDS011;60621;49.576;11.024;2022-10-04T04:38:21;7.82;;;3.53;;
72586;SDS011;60621;49.576;11.024;2022-10-04T04:39:25;7.78;;;3.13;;
72586;SDS011;60621;49.576;11.024;2022-10-04T04:40:34;8.95;;;3.95;;
72586;SDS011;60621;49.576;11.024;2022-10-04T04:41:37;9.30;;;3.75;;
72586;SDS011;60621;49.576;11.024;2022-10-04T04:42:41;10.70;;;3.60;;
72586;SDS011;60621;49.576;11.024;2022-10-04T04:43:43;8.82;;;3.50;;
72586;SDS011;60621;49.576;11.024;2022-10-04T04:44:46;10.43;;;3.60;;
72586;SDS011;60621;49.576;11.024;2022-10-04T04:45:52;7.63;;;3.55;;
72586;SDS011;60621;49.576;11.024;2022-10-04T04:47:27;7.90;;;3.38;;
72586;SDS011;60621;49.576;11.024;2022-10-04T04:48:54;10.50;;;3.72;;
72586;SDS011;60621;49.576;11.024;2022-10-04T04:50:21;8.48;;;3.50;;
72586;SDS011;60621;49.576;11.024;2022-10-04T04:51:25;7.50;;;3.45;;
72586;SDS011;60621;49.576;11.024;2022-10-04T04:52:27;9.45;;;3.55;;
72586;SDS011;60621;49.576;11.024;2022-10-04T04:53:29;8.98;;;3.38;;
72586;SDS011;60621;49.576;11.024;2022-10-04T04:54:31;8.82;;;3.55;;
72586;SDS011;60621;49.576;11.024;2022-10-04T04:55:40;8.27;;;3.40;;
72586;SDS011;60621;49.576;11.024;2022-10-04T04:57:03;10.02;;;5.25;;
72586;SDS011;60621;49.576;11.024;2022-10-04T04:58:05;29.92;;;15.55;;
72586;SDS011;60621;49.576;11.024;2022-10-04T04:59:12;30.65;;;15.05;;
72586;SDS011;60621;49.576;11.024;2022-10-04T05:00:20;15.82;;;7.30;;
72586;SDS011;60621;49.576;11.024;2022-10-04T05:01:35;11.77;;;5.07;;
72586;SDS011;60621;49.576;11.024;2022-10-04T05:02:57;18.00;;;8.65;;
72586;SDS011;60621;49.576;11.024;2022-10-04T05:04:05;15.43;;;7.63;;
72586;SDS011;60621;49.576;11.024;2022-10-04T05:05:23;9.88;;;3.90;;
72586;SDS011;60621;49.576;11.024;2022-10-04T05:06:30;10.02;;;4.22;;
72586;SDS011;60621;49.576;11.024;2022-10-04T05:07:34;7.88;;;3.70;;
72586;SDS011;60621;49.576;11.024;2022-10-04T05:08:36;9.00;;;3.90;;
72586;SDS011;60621;49.576;11.024;2022-10-04T05:09:41;8.50;;;3.90;;
72586;SDS011;60621;49.576;11.024;2022-10-04T05:10:48;7.57;;;3.67;;
72586;SDS011;60621;49.576;11.024;2022-10-04T05:11:51;8.48;;;3.72;;
72586;SDS011;60621;49.576;11.024;2022-10-04T05:12:58;8.07;;;3.38;;
72586;SDS011;60621;49.576;11.024;2022-10-04T05:14:08;7.47;;;3.58;;
72586;SDS011;60621;49.576;11.024;2022-10-04T05:15:12;9.18;;;3.75;;
72586;SDS011;60621;49.576;11.024;2022-10-04T05:16:18;8.00;;;3.25;;
72586;SDS011;60621;49.576;11.024;2022-10-04T05:17:25;6.97;;;3.08;;
72586;SDS011;60621;49.576;11.024;2022-10-04T05:18:31;7.55;;;3.40;;
72586;SDS011;60621;49.576;11.024;2022-10-04T05:20:37;10.05;;;3.67;;
72586;SDS011;60621;49.576;11.024;2022-10-04T05:21:40;7.10;;;2.92;;
72586;SDS011;60621;49.576;11.024;2022-10-04T05:22:45;7.57;;;2.83;;
72586;SDS011;60621;49.576;11.024;2022-10-04T05:23:49;7.47;;;3.50;;
72586;SDS011;60621;49.576;11.024;2022-10-04T05:24:55;9.23;;;3.20;;
72586;SDS011;60621;49.576;11.024;2022-10-04T05:26:01;6.05;;;2.90;;
72586;SDS011;60621;49.576;11.024;2022-10-04T05:27:06;6.72;;;3.08;;
72586;SDS011;60621;49.576;11.024;2022-10-04T05:28:15;7.18;;;3.28;;
72586;SDS011;60621;49.576;11.024;2022-10-04T05:29:20;5.93;;;3.00;;
72586;SDS011;60621;49.576;11.024;2022-10-04T05:33:16;7.80;;;3.13;;
72586;SDS011;60621;49.576;11.024;2022-10-04T05:34:28;7.18;;;3.25;;
72586;SDS011;60621;49.576;11.024;2022-10-04T05:35:54;7.32;;;3.25;;
72586;SDS011;60621;49.576;11.024;2022-10-04T05:38:45;6.97;;;3.03;;
72586;SDS011;60621;49.576;11.024;2022-10-04T05:40:28;7.88;;;3.10;;
72586;SDS011;60621;49.576;11.024;2022-10-04T05:41:38;7.53;;;3.13;;
72586;SDS011;60621;49.576;11.024;2022-10-04T05:42:49;8.27;;;3.50;;
72586;SDS011;60621;49.576;11.024;2022-10-04T05:43:52;6.63;;;3.00;;
72586;SDS011;60621;49.576;11.024;2022-10-04T05:44:55;6.57;;;2.95;;
72586;SDS011;60621;49.576;11.024;2022-10-04T05:47:19;7.78;;;3.40;;
72586;SDS011;60621;49.576;11.024;2022-10-04T05:48:24;6.88;;;3.15;;
72586;SDS011;60621;49.576;11.024;2022-10-04T05:49:39;6.85;;;3.05;;
72586;SDS011;60621;49.576;11.024;2022-10-04T05:50:46;8.45;;;3.50;;
72586;SDS011;60621;49.576;11.024;2022-10-04T05:51:56;10.73;;;3.78;;
72586;SDS011;60621;49.576;11.024;2022-10-04T05:54:26;8.25;;;3.40;;
72586;SDS011;60621;49.576;11.024;2022-10-04T05:57:33;7.05;;;3.35;;
72586;SDS011;60621;49.576;11.024;2022-10-04T06:05:20;9.43;;;3.45;;
72586;SDS011;60621;49.576;11.024;2022-10-04T06:06:38;11.48;;;4.07;;
72586;SDS011;60621;49.576;11.024;2022-10-04T06:07:54;8.00;;;3.60;;
72586;SDS011;60621;49.576;11.024;2022-10-04T06:11:58;10.40;;;4.22;;
72586;SDS011;60621;49.576;11.024;2022-10-04T06:18:46;8.93;;;3.40;;
72586;SDS011;60621;49.576;11.024;2022-10-04T06:20:04;9.63;;;4.32;;
72586;SDS011;60621;49.576;11.024;2022-10-04T06:21:24;8.15;;;3.72;;
72586;SDS011;60621;49.576;11.024;2022-10-04T06:22:28;9.50;;;3.85;;
72586;SDS011;60621;49.576;11.024;2022-10-04T06:23:31;8.07;;;3.83;;
72586;SDS011;60621;49.576;11.024;2022-10-04T06:24:38;9.63;;;3.95;;
72586;SDS011;60621;49.576;11.024;2022-10-04T06:26:04;8.48;;;3.80;;
72586;SDS011;60621;49.576;11.024;2022-10-04T06:27:09;8.93;;;3.72;;
72586;SDS011;60621;49.576;11.024;2022-10-04T06:28:15;7.80;;;3.75;;
72586;SDS011;60621;49.576;11.024;2022-10-04T06:29:37;9.43;;;4.22;;
72586;SDS011;60621;49.576;11.024;2022-10-04T06:37:34;9.70;;;3.90;;
72586;SDS011;60621;49.576;11.024;2022-10-04T06:41:44;8.85;;;3.55;;
72586;SDS011;60621;49.576;11.024;2022-10-04T06:47:59;8.50;;;3.20;;
72586;SDS011;60621;49.576;11.024;2022-10-04T06:48:41;8.98;;;3.53;;
72586;SDS011;60621;49.576;11.024;2022-10-04T06:51:54;7.90;;;3.80;;
72586;SDS011;60621;49.576;11.024;2022-10-04T06:53:10;8.05;;;3.80;;
72586;SDS011;60621;49.576;11.024;2022-10-04T07:00:06;10.68;;;4.90;;
72586;SDS011;60621;49.576;11.024;2022-10-04T07:01:21;10.13;;;4.80;;
72586;SDS011;60621;49.576;11.024;2022-10-04T07:03:38;8.82;;;4.20;;
72586;SDS011;60621;49.576;11.024;2022-10-04T07:05:17;8.98;;;3.60;;
72586;SDS011;60621;49.576;11.024;2022-10-04T07:06:22;9.60;;;4.35;;
72586;SDS011;60621;49.576;11.024;2022-10-04T07:07:31;13.70;;;6.93;;
72586;SDS011;60621;49.576;11.024;2022-10-04T07:08:51;18.90;;;8.07;;
72586;SDS011;60621;49.576;11.024;2022-10-04T07:10:20;15.02;;;7.45;;
72586;SDS011;60621;49.576;11.024;2022-10-04T07:11:41;14.70;;;6.93;;
72586;SDS011;60621;49.576;11.024;2022-10-04T07:12:57;8.85;;;4.20;;
72586;SDS011;60621;49.576;11.024;2022-10-04T07:14:12;8.52;;;3.80;;
72586;SDS011;60621;49.576;11.024;2022-10-04T07:15:20;8.30;;;3.67;;
72586;SDS011;60621;49.576;11.024;2022-10-04T07:16:28;8.75;;;3.78;;
72586;SDS011;60621;49.576;11.024;2022-10-04T07:17:37;9.13;;;4.00;;
72586;SDS011;60621;49.576;11.024;2022-10-04T07:20:22;8.73;;;3.65;;
72586;SDS011;60621;49.576;11.024;2022-10-04T07:21:32;9.02;;;4.20;;
72586;SDS011;60621;49.576;11.024;2022-10-04T07:22:43;7.35;;;3.72;;
72586;SDS011;60621;49.576;11.024;2022-10-04T07:23:49;8.38;;;4.05;;
72586;SDS011;60621;49.576;11.024;2022-10-04T07:24:58;8.77;;;4.07;;
72586;SDS011;60621;49.576;11.024;2022-10-04T07:26:17;10.85;;;4.10;;
72586;SDS011;60621;49.576;11.024;2022-10-04T07:28:29;9.65;;;4.35;;
72586;SDS011;60621;49.576;11.024;2022-10-04T07:29:28;11.75;;;4.70;;
72586;SDS011;60621;49.576;11.024;2022-10-04T07:30:37;13.18;;;6.38;;
72586;SDS011;60621;49.576;11.024;2022-10-04T07:33:07;11.07;;;4.55;;
72586;SDS011;60621;49.576;11.024;2022-10-04T07:34:24;8.55;;;4.45;;
72586;SDS011;60621;49.576;11.024;2022-10-04T07:35:29;7.65;;;4.00;;
72586;SDS011;60621;49.576;11.024;2022-10-04T07:36:50;8.52;;;3.67;;
72586;SDS011;60621;49.576;11.024;2022-10-04T07:39:17;9.13;;;3.53;;
72586;SDS011;60621;49.576;11.024;2022-10-04T07:40:26;7.18;;;3.55;;
72586;SDS011;60621;49.576;11.024;2022-10-04T07:41:33;8.77;;;3.65;;
72586;SDS011;60621;49.576;11.024;2022-10-04T07:42:45;7.75;;;3.63;;
72586;SDS011;60621;49.576;11.024;2022-10-04T07:43:58;9.13;;;3.45;;
72586;SDS011;60621;49.576;11.024;2022-10-04T07:45:12;6.65;;;3.28;;
72586;SDS011;60621;49.576;11.024;2022-10-04T07:46:25;8.68;;;3.80;;
72586;SDS011;60621;49.576;11.024;2022-10-04T07:47:40;8.20;;;3.92;;
72586;SDS011;60621;49.576;11.024;2022-10-04T07:48:43;7.82;;;3.85;;
72586;SDS011;60621;49.576;11.024;2022-10-04T07:49:48;12.00;;;4.20;;
72586;SDS011;60621;49.576;11.024;2022-10-04T07:56:31;9.75;;;3.47;;
72586;SDS011;60621;49.576;11.024;2022-10-04T08:03:49;8.60;;;3.58;;
72586;SDS011;60621;49.576;11.024;2022-10-04T08:05:22;9.43;;;4.45;;
72586;SDS011;60621;49.576;11.024;2022-10-04T08:06:31;8.30;;;3.60;;
72586;SDS011;60621;49.576;11.024;2022-10-04T08:07:58;8.15;;;3.95;;
72586;SDS011;60621;49.576;11.024;2022-10-04T08:13:11;8.30;;;3.50;;
72586;SDS011;60621;49.576;11.024;2022-10-04T08:14:20;8.90;;;4.28;;
72586;SDS011;60621;49.576;11.024;2022-10-04T08:15:32;7.30;;;3.85;;
72586;SDS011;60621;49.576;11.024;2022-10-04T08:16:41;9.68;;;4.20;;
72586;SDS011;60621;49.576;11.024;2022-10-04T08:20:34;7.78;;;3.95;;
72586;SDS011;60621;49.576;11.024;2022-10-04T08:21:42;11.43;;;4.82;;
72586;SDS011;60621;49.576;11.024;2022-10-04T08:24:20;8.20;;;4.28;;
72586;SDS011;60621;49.576;11.024;2022-10-04T08:30:12;8.20;;;4.18;;
72586;SDS011;60621;49.576;11.024;2022-10-04T08:32:37;8.10;;;4.25;;
72586;SDS011;60621;49.576;11.024;2022-10-04T08:35:14;6.80;;;3.60;;
72586;SDS011;60621;49.576;11.024;2022-10-04T08:36:39;8.20;;;3.60;;
72586;SDS011;60621;49.576;11.024;2022-10-04T08:38:58;9.32;;;3.95;;
72586;SDS011;60621;49.576;11.024;2022-10-04T08:41:49;8.57;;;3.58;;
72586;SDS011;60621;49.576;11.024;2022-10-04T08:43:27;7.88;;;3.80;;
72586;SDS011;60621;49.576;11.024;2022-10-04T08:45:50;6.80;;;3.65;;
72586;SDS011;60621;49.576;11.024;2022-10-04T08:50:59;8.02;;;3.42;;
72586;SDS011;60621;49.576;11.024;2022-10-04T08:52:40;7.10;;;3.40;;
72586;SDS011;60621;49.576;11.024;2022-10-04T09:02:29;8.18;;;3.33;;
72586;SDS011;60621;49.576;11.024;2022-10-04T09:04:11;9.85;;;3.83;;
72586;SDS011;60621;49.576;11.024;2022-10-04T09:06:26;7.60;;;3.80;;
72586;SDS011;60621;49.576;11.024;2022-10-04T09:12:07;8.85;;;3.67;;